Terminal Aerodrome Forecast
Issued by NWS Quad Cities IA IL

Home | Current Version | Previous Version | Text Only | Print | Product List | Glossary On
Versions: 1 2 3 4 5 6 7 8 9 10 11 12 13 14 15 16 17
000
FTUS43 KDVN 241744
TAFMLI
TAF
KMLI 241744Z 2418/2518 10012KT P6SM VCSH BKN030 OVC060
      TEMPO 2418/2419 3SM SHRA FEW030 OVC040
     FM250000 15012KT 4SM TSRA BR BKN012 OVC030CB
     FM250500 18007KT 2SM -SHRA BR SCT007 BKN009 OVC012
     FM251200 23014G22KT 5SM BR VCSH BKN020=

USA.gov is the U.S. government's official web portal to all federal, state and local government web resources and services.